createdAt,value
2022-08-19T00:00:31.244Z,20.58
2022-08-19T00:01:31.302Z,20.53
2022-08-19T00:02:31.285Z,20.58
2022-08-19T00:03:31.191Z,20.50
2022-08-19T00:04:31.297Z,20.54
2022-08-19T00:05:31.163Z,20.48
2022-08-19T00:06:31.154Z,20.53
2022-08-19T00:07:31.135Z,20.42
2022-08-19T00:08:31.120Z,20.50
2022-08-19T00:09:31.135Z,20.41
2022-08-19T00:10:31.081Z,20.44
2022-08-19T00:11:31.236Z,20.42
2022-08-19T00:12:31.101Z,20.44
2022-08-19T00:13:31.046Z,20.50
2022-08-19T00:14:31.020Z,20.46
2022-08-19T00:15:31.029Z,20.50
2022-08-19T00:16:30.979Z,20.50
2022-08-19T00:17:30.942Z,20.57
2022-08-19T00:18:30.963Z,20.44
2022-08-19T00:19:30.950Z,20.42
2022-08-19T00:20:30.901Z,20.44
2022-08-19T00:21:30.874Z,20.46
2022-08-19T00:22:30.911Z,20.51
2022-08-19T00:23:30.883Z,20.44
2022-08-19T00:24:30.991Z,20.46
2022-08-19T00:25:30.933Z,20.56
2022-08-19T00:26:30.839Z,20.53
2022-08-19T00:27:30.828Z,20.57
2022-08-19T00:28:30.804Z,20.46
2022-08-19T00:29:30.906Z,20.48
2022-08-19T00:30:30.821Z,20.41
2022-08-19T00:31:30.741Z,20.48
2022-08-19T00:32:30.750Z,20.53
2022-08-19T00:33:31.117Z,20.57
2022-08-19T00:34:30.854Z,20.48
2022-08-19T00:35:30.803Z,20.61
2022-08-19T00:36:30.615Z,20.51
2022-08-19T00:37:30.655Z,20.60
2022-08-19T00:38:35.271Z,20.57
2022-08-19T00:39:31.774Z,20.58
2022-08-19T00:40:30.661Z,20.66
2022-08-19T00:41:30.692Z,20.61
2022-08-19T00:42:30.586Z,20.64
2022-08-19T00:43:30.523Z,20.68
2022-08-19T00:44:30.517Z,20.63
2022-08-19T00:45:30.560Z,20.71
2022-08-19T00:46:30.508Z,20.71
2022-08-19T00:47:30.436Z,20.68
2022-08-19T00:48:30.403Z,20.79
2022-08-19T00:49:30.412Z,20.76
2022-08-19T00:50:30.374Z,20.63
2022-08-19T00:51:30.404Z,20.75
2022-08-19T00:52:30.788Z,20.83
2022-08-19T00:53:30.321Z,20.75
2022-08-19T00:54:31.288Z,20.78
2022-08-19T00:55:30.283Z,20.72
2022-08-19T00:56:30.273Z,20.73
2022-08-19T00:57:30.248Z,20.76
2022-08-19T00:58:30.231Z,20.79
2022-08-19T01:00:01.128Z,20.69
2022-08-19T01:00:31.311Z,20.78
2022-08-19T01:01:30.276Z,20.72
2022-08-19T01:02:30.184Z,20.75
2022-08-19T01:03:57.192Z,20.78
2022-08-19T01:04:31.405Z,20.87
2022-08-19T01:05:30.162Z,20.83
2022-08-19T01:06:30.221Z,20.72
2022-08-19T01:07:35.926Z,20.76
2022-08-19T01:08:31.173Z,20.81
2022-08-19T01:09:30.064Z,20.63
2022-08-19T01:10:34.731Z,20.69
2022-08-19T01:11:32.074Z,20.73
2022-08-19T01:12:29.983Z,20.78
2022-08-19T01:13:30.135Z,20.85
2022-08-19T01:14:31.099Z,20.76
2022-08-19T01:15:30.036Z,20.79
2022-08-19T01:16:30.024Z,20.76
2022-08-19T01:17:30.017Z,20.81
2022-08-19T01:18:29.932Z,20.72
2022-08-19T01:19:29.893Z,20.81
2022-08-19T01:20:29.926Z,20.78
2022-08-19T01:21:29.921Z,20.76
2022-08-19T01:22:33.486Z,20.72
2022-08-19T01:23:30.907Z,20.79
2022-08-19T01:24:29.867Z,20.69
2022-08-19T01:25:29.766Z,20.76
2022-08-19T01:26:31.193Z,20.68
2022-08-19T01:27:43.294Z,20.69
2022-08-19T01:28:33.972Z,20.83
2022-08-19T01:29:29.723Z,20.79
2022-08-19T01:30:29.743Z,20.69
2022-08-19T01:31:29.660Z,20.76
2022-08-19T01:32:32.402Z,20.75
2022-08-19T01:33:29.619Z,20.85
2022-08-19T01:34:29.636Z,20.72
2022-08-19T01:35:29.698Z,20.76
2022-08-19T01:36:29.614Z,20.75
2022-08-19T01:37:29.607Z,20.60
2022-08-19T01:38:29.542Z,20.76
2022-08-19T01:39:29.582Z,20.79
2022-08-19T01:40:29.591Z,20.66
2022-08-19T01:41:29.480Z,20.73
2022-08-19T01:42:30.430Z,20.75
2022-08-19T01:43:29.455Z,20.73
2022-08-19T01:44:29.486Z,20.71
2022-08-19T01:45:29.563Z,20.76
2022-08-19T01:46:29.473Z,20.76
2022-08-19T01:47:29.540Z,20.78
2022-08-19T01:48:29.425Z,20.85
2022-08-19T01:49:29.437Z,20.79
2022-08-19T01:50:29.456Z,20.69
2022-08-19T01:51:29.478Z,20.79
2022-08-19T01:52:30.431Z,20.79
2022-08-19T01:53:30.621Z,20.79
2022-08-19T01:54:29.372Z,20.76
2022-08-19T01:55:29.270Z,20.73
2022-08-19T01:56:29.326Z,20.68
2022-08-19T01:57:29.280Z,20.76
2022-08-19T01:58:29.290Z,20.73
2022-08-19T01:59:29.254Z,20.73
2022-08-19T02:00:29.300Z,20.72
2022-08-19T02:01:31.321Z,20.73
2022-08-19T02:02:29.114Z,20.71
2022-08-19T02:03:29.273Z,20.72
2022-08-19T02:04:29.190Z,20.61
2022-08-19T02:05:30.168Z,20.57
2022-08-19T02:06:29.055Z,20.63
2022-08-19T02:07:29.138Z,20.56
2022-08-19T02:08:29.635Z,20.57
2022-08-19T02:09:29.103Z,20.66
2022-08-19T02:10:29.122Z,20.51
2022-08-19T02:11:28.961Z,20.50
2022-08-19T02:12:28.966Z,20.40
2022-08-19T02:13:28.925Z,20.40
2022-08-19T02:14:28.928Z,20.51
2022-08-19T02:15:29.398Z,20.53
2022-08-19T02:16:28.898Z,20.40
2022-08-19T02:17:28.850Z,20.44
2022-08-19T02:18:28.858Z,20.41
2022-08-19T02:19:28.863Z,20.38
2022-08-19T02:20:28.831Z,20.31
2022-08-19T02:21:28.791Z,20.37
2022-08-19T02:22:28.798Z,20.44
2022-08-19T02:23:28.756Z,20.35
2022-08-19T02:24:28.796Z,20.35
2022-08-19T02:25:28.864Z,20.38
2022-08-19T02:26:28.755Z,20.35
2022-08-19T02:27:28.764Z,20.41
2022-08-19T02:28:28.667Z,20.48
2022-08-19T02:29:28.723Z,20.38
2022-08-19T02:30:28.677Z,20.30
2022-08-19T02:31:28.705Z,20.41
2022-08-19T02:32:28.660Z,20.34
2022-08-19T02:33:28.749Z,20.27
2022-08-19T02:34:28.636Z,20.40
2022-08-19T02:35:28.616Z,20.42
2022-08-19T02:36:28.588Z,20.37
2022-08-19T02:37:28.575Z,20.38
2022-08-19T02:38:28.501Z,20.40
2022-08-19T02:39:28.563Z,20.38
2022-08-19T02:40:28.519Z,20.35
2022-08-19T02:41:28.455Z,20.37
2022-08-19T02:42:28.462Z,20.35
2022-08-19T02:43:28.433Z,20.33
2022-08-19T02:44:31.623Z,20.31
2022-08-19T02:45:28.484Z,20.30
2022-08-19T02:46:28.529Z,20.22
2022-08-19T02:47:28.401Z,20.23
2022-08-19T02:48:28.341Z,20.30
2022-08-19T02:49:28.375Z,20.23
2022-08-19T02:50:28.433Z,20.25
2022-08-19T02:51:28.334Z,20.19
2022-08-19T02:52:28.351Z,20.20
2022-08-19T02:53:28.242Z,20.23
2022-08-19T02:54:28.272Z,20.17
2022-08-19T02:55:28.261Z,20.20
2022-08-19T02:56:28.250Z,20.16
2022-08-19T02:57:28.168Z,20.25
2022-08-19T02:58:28.154Z,20.20
2022-08-19T02:59:28.131Z,20.17
2022-08-19T03:00:28.162Z,20.20
2022-08-19T03:01:28.169Z,20.17
2022-08-19T03:02:28.174Z,20.22
2022-08-19T03:03:28.067Z,20.23
2022-08-19T03:04:28.055Z,20.16
2022-08-19T03:05:46.861Z,20.23
2022-08-19T03:06:29.113Z,20.20
2022-08-19T03:07:28.593Z,20.22
2022-08-19T03:08:28.124Z,20.17
2022-08-19T03:09:28.039Z,20.19
2022-08-19T03:10:28.050Z,20.15
2022-08-19T03:11:28.002Z,20.15
2022-08-19T03:12:29.058Z,20.10
2022-08-19T03:13:28.015Z,20.07
2022-08-19T03:14:27.994Z,20.01
2022-08-19T03:15:27.969Z,20.12
2022-08-19T03:16:27.998Z,20.04
2022-08-19T03:17:27.891Z,20.13
2022-08-19T03:18:27.854Z,20.08
2022-08-19T03:19:27.845Z,20.05
2022-08-19T03:20:27.872Z,20.02
2022-08-19T03:21:27.860Z,19.98
2022-08-19T03:22:27.922Z,20.08
2022-08-19T03:23:27.781Z,19.98
2022-08-19T03:24:27.757Z,20.13
2022-08-19T03:25:27.833Z,20.07
2022-08-19T03:26:27.717Z,20.00
2022-08-19T03:27:32.478Z,20.02
2022-08-19T03:28:29.643Z,20.02
2022-08-19T03:29:30.622Z,20.00
2022-08-19T03:30:27.631Z,19.98
2022-08-19T03:31:43.518Z,20.04
2022-08-19T03:32:32.802Z,20.05
2022-08-19T03:33:28.579Z,20.00
2022-08-19T03:34:27.590Z,20.05
2022-08-19T03:35:27.549Z,20.10
2022-08-19T03:36:27.553Z,19.97
2022-08-19T03:37:27.608Z,20.04
2022-08-19T03:38:27.518Z,19.97
2022-08-19T03:39:27.603Z,20.01
2022-08-19T03:40:27.533Z,19.90
2022-08-19T03:41:27.479Z,19.86
2022-08-19T03:42:38.481Z,19.89
2022-08-19T03:43:28.418Z,19.92
2022-08-19T03:44:27.360Z,19.89
2022-08-19T03:45:27.371Z,19.87
2022-08-19T03:46:27.441Z,19.86
2022-08-19T03:47:27.436Z,19.92
2022-08-19T03:48:27.339Z,19.89
2022-08-19T03:49:28.420Z,19.95
2022-08-19T03:50:27.301Z,19.90
2022-08-19T03:51:30.603Z,19.95
2022-08-19T03:52:27.383Z,19.86
2022-08-19T03:53:27.215Z,19.95
2022-08-19T03:54:27.326Z,19.90
2022-08-19T03:55:27.257Z,19.89
2022-08-19T03:56:27.174Z,19.95
2022-08-19T03:57:31.663Z,19.90
2022-08-19T03:58:27.244Z,19.92
2022-08-19T03:59:27.231Z,19.94
2022-08-19T04:00:27.173Z,19.86
2022-08-19T04:01:33.061Z,19.83
2022-08-19T04:02:28.106Z,19.89
2022-08-19T04:03:27.070Z,19.97
2022-08-19T04:04:29.265Z,19.94
2022-08-19T04:05:27.588Z,19.94
2022-08-19T04:06:27.044Z,19.95
2022-08-19T04:07:27.065Z,19.89
2022-08-19T04:08:27.055Z,19.86
2022-08-19T04:09:27.050Z,19.90
2022-08-19T04:10:27.039Z,19.89
2022-08-19T04:11:43.081Z,19.89
2022-08-19T04:12:27.958Z,19.82
2022-08-19T04:13:26.911Z,19.82
2022-08-19T04:14:26.845Z,19.87
2022-08-19T04:15:26.918Z,19.87
2022-08-19T04:16:35.212Z,19.82
2022-08-19T04:17:27.840Z,19.83
2022-08-19T04:18:26.873Z,19.78
2022-08-19T04:19:26.800Z,19.82
2022-08-19T04:20:26.842Z,19.79
2022-08-19T04:21:26.895Z,19.86
2022-08-19T04:22:26.799Z,19.75
2022-08-19T04:23:26.757Z,19.79
2022-08-19T04:24:27.339Z,19.83
2022-08-19T04:25:26.769Z,19.78
2022-08-19T04:26:26.684Z,19.65
2022-08-19T04:27:26.657Z,19.71
2022-08-19T04:28:27.658Z,19.68
2022-08-19T04:29:26.607Z,19.72
2022-08-19T04:30:26.711Z,19.76
2022-08-19T04:31:26.677Z,19.67
2022-08-19T04:32:26.645Z,19.70
2022-08-19T04:33:28.456Z,19.67
2022-08-19T04:34:26.544Z,19.65
2022-08-19T04:35:26.486Z,19.75
2022-08-19T04:36:26.599Z,19.68
2022-08-19T04:37:26.555Z,19.62
2022-08-19T04:38:26.856Z,19.67
2022-08-19T04:39:26.518Z,19.67
2022-08-19T04:40:26.482Z,19.65
2022-08-19T04:41:26.400Z,19.67
2022-08-19T04:42:30.683Z,19.60
2022-08-19T04:43:26.359Z,19.60
2022-08-19T04:44:26.372Z,19.64
2022-08-19T04:45:26.407Z,19.58
2022-08-19T04:46:39.463Z,19.57
2022-08-19T04:47:47.651Z,19.49
2022-08-19T04:48:27.963Z,19.58
2022-08-19T04:49:26.282Z,19.53
2022-08-19T04:50:26.276Z,19.57
2022-08-19T04:51:26.284Z,19.57
2022-08-19T04:52:26.243Z,19.45
2022-08-19T04:53:26.232Z,19.42
2022-08-19T04:54:37.335Z,19.55
2022-08-19T04:55:27.199Z,19.49
2022-08-19T04:56:26.202Z,19.49
2022-08-19T04:57:26.150Z,19.46
2022-08-19T04:58:26.072Z,19.55
2022-08-19T04:59:26.107Z,19.47
2022-08-19T05:00:26.087Z,19.45
2022-08-19T05:01:26.085Z,19.45
2022-08-19T05:02:26.053Z,19.53
2022-08-19T05:03:30.093Z,19.49
2022-08-19T05:04:26.991Z,19.47
2022-08-19T05:05:26.076Z,19.49
2022-08-19T05:06:26.025Z,19.53
2022-08-19T05:07:25.909Z,19.47
2022-08-19T05:08:31.539Z,19.47
2022-08-19T05:09:26.990Z,19.42
2022-08-19T05:10:25.917Z,19.42
2022-08-19T05:11:26.680Z,19.53
2022-08-19T05:12:29.134Z,19.45
2022-08-19T05:13:25.897Z,19.55
2022-08-19T05:14:25.855Z,19.58
2022-08-19T05:15:25.795Z,19.58
2022-08-19T05:16:25.911Z,19.67
2022-08-19T05:17:28.523Z,19.64
2022-08-19T05:18:26.832Z,19.61
2022-08-19T05:19:25.769Z,19.85
2022-08-19T05:20:25.746Z,19.71
2022-08-19T05:21:25.854Z,19.79
2022-08-19T05:22:25.657Z,19.87
2022-08-19T05:23:25.799Z,19.87
2022-08-19T05:24:25.748Z,19.85
2022-08-19T05:25:25.615Z,20.01
2022-08-19T05:26:26.092Z,20.01
2022-08-19T05:27:25.694Z,20.19
2022-08-19T05:28:25.570Z,20.20
2022-08-19T05:29:25.544Z,20.23
2022-08-19T05:30:42.154Z,20.34
2022-08-19T05:31:26.696Z,20.50
2022-08-19T05:32:25.667Z,20.60
2022-08-19T05:33:25.574Z,20.90
2022-08-19T05:34:25.572Z,21.33
2022-08-19T05:35:25.520Z,21.71
2022-08-19T05:36:25.502Z,22.11
2022-08-19T05:37:25.545Z,22.61
2022-08-19T05:38:25.438Z,22.88
2022-08-19T05:39:25.491Z,23.45
2022-08-19T05:40:25.405Z,23.79
2022-08-19T05:41:25.361Z,24.09
2022-08-19T05:42:25.411Z,24.37
2022-08-19T05:43:25.365Z,24.75
2022-08-19T05:44:25.339Z,25.09
2022-08-19T05:45:25.289Z,25.38
2022-08-19T05:46:28.193Z,25.51
2022-08-19T05:47:25.299Z,25.74
2022-08-19T05:48:25.382Z,25.71
2022-08-19T05:49:25.260Z,25.83
2022-08-19T05:50:25.193Z,25.96
2022-08-19T05:51:28.828Z,26.06
2022-08-19T05:52:26.569Z,26.16
2022-08-19T05:53:25.259Z,26.19
2022-08-19T05:54:25.184Z,26.17
2022-08-19T05:55:25.101Z,26.34
2022-08-19T05:56:25.193Z,26.46
2022-08-19T05:57:25.233Z,26.47
2022-08-19T05:58:25.066Z,26.54
2022-08-19T05:59:25.726Z,26.57
2022-08-19T06:00:25.032Z,26.41
2022-08-19T06:01:25.088Z,26.35
2022-08-19T06:02:25.127Z,26.17
2022-08-19T06:03:24.992Z,26.06
2022-08-19T06:04:25.034Z,26.04
2022-08-19T06:05:25.147Z,25.98
2022-08-19T06:06:25.070Z,25.97
2022-08-19T06:07:24.991Z,26.03
2022-08-19T06:08:34.119Z,26.09
2022-08-19T06:09:25.987Z,26.13
2022-08-19T06:10:24.903Z,26.20
2022-08-19T06:11:24.939Z,26.27
2022-08-19T06:12:25.025Z,26.28
2022-08-19T06:13:24.913Z,26.39
2022-08-19T06:14:28.047Z,26.47
2022-08-19T06:15:24.847Z,26.42
2022-08-19T06:18:10.353Z,26.31
2022-08-19T06:19:11.501Z,26.34
2022-08-19T06:20:11.907Z,26.46
2022-08-19T06:21:11.512Z,26.53
2022-08-19T06:22:11.452Z,26.56
2022-08-19T06:23:11.439Z,26.75
2022-08-19T06:24:12.446Z,26.83
2022-08-19T06:25:11.418Z,26.87
2022-08-19T06:26:11.428Z,26.93
2022-08-19T06:27:11.376Z,27.11
2022-08-19T06:28:15.023Z,27.15
2022-08-19T06:29:12.344Z,27.27
2022-08-19T06:30:12.326Z,27.23
2022-08-19T06:31:11.352Z,27.30
2022-08-19T06:32:11.288Z,27.45
2022-08-19T06:33:11.322Z,27.49
2022-08-19T06:34:11.990Z,27.63
2022-08-19T06:35:11.244Z,27.68
2022-08-19T06:36:11.283Z,27.58
2022-08-19T06:37:11.209Z,27.66
2022-08-19T06:38:11.209Z,27.74
2022-08-19T06:39:11.193Z,27.71
2022-08-19T06:40:11.266Z,27.90
2022-08-19T06:41:11.184Z,27.91
2022-08-19T06:42:11.270Z,28.18
2022-08-19T06:43:11.118Z,28.55
2022-08-19T06:44:13.277Z,28.62
2022-08-19T06:45:11.081Z,28.85
2022-08-19T06:46:11.114Z,29.07
2022-08-19T06:47:14.199Z,29.30
2022-08-19T06:48:11.651Z,29.35
2022-08-19T06:49:11.077Z,29.35
2022-08-19T06:50:11.006Z,29.33
2022-08-19T06:51:11.079Z,29.14
2022-08-19T06:52:13.945Z,28.92
2022-08-19T06:53:10.978Z,28.73
2022-08-19T06:54:19.233Z,28.65
2022-08-19T06:55:11.934Z,28.94
2022-08-19T06:56:10.973Z,29.05
2022-08-19T06:57:10.895Z,29.30
2022-08-19T06:58:10.885Z,29.49
2022-08-19T06:59:10.864Z,29.35
2022-08-19T07:00:12.804Z,29.60
2022-08-19T07:01:11.878Z,29.84
2022-08-19T07:02:10.851Z,29.82
2022-08-19T07:03:13.316Z,30.01
2022-08-19T07:04:12.076Z,30.18
2022-08-19T07:05:10.776Z,30.56
2022-08-19T07:06:21.339Z,30.79
2022-08-19T07:07:20.962Z,30.85
2022-08-19T07:08:11.740Z,31.09
2022-08-19T07:09:10.708Z,31.23
2022-08-19T07:10:10.690Z,30.79
2022-08-19T07:11:10.867Z,30.94
2022-08-19T07:12:10.668Z,31.38
2022-08-19T07:13:10.653Z,31.57
2022-08-19T07:14:16.673Z,32.09
2022-08-19T07:15:11.621Z,32.46
2022-08-19T07:16:10.633Z,32.61
2022-08-19T07:17:10.585Z,32.72
2022-08-19T07:18:11.752Z,32.95
2022-08-19T07:19:15.739Z,32.88
2022-08-19T07:20:11.551Z,32.83
2022-08-19T07:21:10.549Z,32.73
2022-08-19T07:22:13.154Z,32.49
2022-08-19T07:23:10.536Z,32.19
2022-08-19T07:24:11.479Z,31.74
2022-08-19T07:25:10.484Z,31.22
2022-08-19T07:26:10.481Z,30.98
2022-08-19T07:27:10.608Z,30.82
2022-08-19T07:28:20.194Z,30.36
2022-08-19T07:29:11.410Z,30.04
2022-08-19T07:30:11.734Z,29.49
2022-08-19T07:31:10.399Z,29.21
2022-08-19T07:32:11.579Z,28.87
2022-08-19T07:33:10.340Z,28.62
2022-08-19T07:34:10.330Z,28.43
2022-08-19T07:35:10.317Z,28.27
2022-08-19T07:36:10.337Z,28.14
2022-08-19T07:37:10.287Z,27.91
2022-08-19T07:38:10.265Z,28.01
2022-08-19T07:39:10.252Z,28.02
2022-08-19T07:40:10.301Z,28.08
2022-08-19T07:41:10.279Z,27.90
2022-08-19T07:42:10.225Z,27.80
2022-08-19T07:43:13.943Z,27.69
2022-08-19T07:44:11.177Z,27.77
2022-08-19T07:45:10.151Z,27.72
2022-08-19T07:47:47.073Z,27.52
2022-08-19T07:48:11.119Z,27.53
2022-08-19T07:49:10.111Z,27.65
2022-08-19T07:50:10.088Z,27.68
2022-08-19T07:51:10.089Z,27.69
2022-08-19T07:52:10.054Z,27.77
2022-08-19T07:53:10.050Z,27.78
2022-08-19T07:54:10.022Z,27.76
2022-08-19T07:55:39.822Z,28.14
2022-08-19T07:56:11.028Z,28.13
2022-08-19T07:57:09.984Z,28.54
2022-08-19T07:58:09.973Z,29.35
2022-08-19T07:59:09.943Z,29.39
2022-08-19T08:00:09.951Z,29.29
2022-08-19T08:01:09.955Z,29.29
2022-08-19T08:02:09.965Z,29.41
2022-08-19T08:03:09.884Z,29.52
2022-08-19T08:04:10.115Z,29.48
2022-08-19T08:05:09.865Z,29.36
2022-08-19T08:06:09.886Z,29.27
2022-08-19T08:07:09.836Z,29.18
2022-08-19T08:08:09.813Z,29.14
2022-08-19T08:09:09.887Z,29.08
2022-08-19T08:10:21.062Z,29.05
2022-08-19T08:11:11.873Z,28.85
2022-08-19T08:12:18.424Z,28.67
2022-08-19T08:13:11.887Z,28.52
2022-08-19T08:14:09.724Z,28.38
2022-08-19T08:15:12.507Z,28.50
2022-08-19T08:16:10.218Z,28.42
2022-08-19T08:17:10.918Z,28.57
2022-08-19T08:18:09.666Z,28.60
2022-08-19T08:19:14.815Z,28.64
2022-08-19T08:20:10.632Z,28.64
2022-08-19T08:21:09.681Z,28.65
2022-08-19T08:22:09.637Z,28.77
2022-08-19T08:23:09.676Z,28.95
2022-08-19T08:24:09.596Z,29.12
2022-08-19T08:25:09.560Z,29.08
2022-08-19T08:26:09.575Z,28.91
2022-08-19T08:27:11.201Z,29.35
2022-08-19T08:28:09.513Z,30.67
2022-08-19T08:29:12.843Z,31.56
2022-08-19T08:30:09.481Z,32.39
2022-08-19T08:31:09.916Z,32.80
2022-08-19T08:32:14.224Z,33.03
2022-08-19T08:33:10.478Z,33.66
2022-08-19T08:34:09.499Z,34.34
2022-08-19T08:35:09.415Z,34.78
2022-08-19T08:36:09.419Z,35.10
2022-08-19T08:37:09.381Z,35.07
2022-08-19T08:38:09.353Z,34.58
2022-08-19T08:39:09.344Z,34.46
2022-08-19T08:40:13.101Z,34.52
2022-08-19T08:41:10.330Z,34.81
2022-08-19T08:42:10.336Z,35.12
2022-08-19T08:43:11.429Z,35.22
2022-08-19T08:44:09.266Z,35.22
2022-08-19T08:45:10.249Z,35.28
2022-08-19T08:46:09.253Z,35.55
2022-08-19T08:47:09.218Z,35.46
2022-08-19T08:48:22.493Z,35.13
2022-08-19T08:49:10.198Z,35.21
2022-08-19T08:50:09.178Z,34.84
2022-08-19T08:51:09.234Z,34.64
2022-08-19T08:52:09.141Z,34.19
2022-08-19T08:53:09.125Z,33.68
2022-08-19T08:54:09.864Z,33.00
2022-08-19T08:55:10.109Z,32.46
2022-08-19T08:56:09.126Z,31.98
2022-08-19T08:57:09.056Z,31.38
2022-08-19T08:58:09.070Z,30.88
2022-08-19T08:59:09.040Z,30.60
2022-08-19T09:00:15.159Z,30.21
2022-08-19T09:01:10.035Z,29.84
2022-08-19T09:02:08.980Z,29.55
2022-08-19T09:03:08.966Z,29.15
2022-08-19T09:04:08.953Z,28.97
2022-08-19T09:05:08.929Z,28.97
2022-08-19T09:06:11.851Z,29.10
2022-08-19T09:07:18.474Z,28.85
2022-08-19T09:08:09.914Z,28.65
2022-08-19T09:09:11.861Z,28.42
2022-08-19T09:10:08.861Z,28.35
2022-08-19T09:11:08.871Z,28.20
2022-08-19T09:12:08.836Z,28.01
2022-08-19T09:13:09.374Z,28.05
2022-08-19T09:14:12.938Z,27.95
2022-08-19T09:15:09.783Z,28.01
2022-08-19T09:16:08.805Z,27.77
2022-08-19T09:17:08.769Z,27.71
2022-08-19T09:18:08.734Z,27.55
2022-08-19T09:19:09.744Z,27.61
2022-08-19T09:20:09.025Z,27.65
2022-08-19T09:21:08.716Z,27.71
2022-08-19T09:22:08.667Z,27.74
2022-08-19T09:23:08.657Z,27.72
2022-08-19T09:24:08.631Z,27.83
2022-08-19T09:25:08.640Z,28.03
2022-08-19T09:26:08.639Z,28.06
2022-08-19T09:27:18.614Z,28.08
2022-08-19T09:28:20.583Z,27.86
2022-08-19T09:29:09.554Z,27.86
2022-08-19T09:30:08.559Z,27.86
2022-08-19T09:31:08.563Z,27.84
2022-08-19T09:32:08.525Z,27.65
2022-08-19T09:33:09.506Z,27.46
2022-08-19T09:34:08.545Z,27.61
2022-08-19T09:35:09.490Z,27.77
2022-08-19T09:36:08.827Z,27.80
2022-08-19T09:37:08.453Z,27.62
2022-08-19T09:38:08.421Z,27.58
2022-08-19T09:39:16.266Z,27.50
2022-08-19T09:40:09.496Z,27.49
2022-08-19T09:41:08.461Z,27.45
2022-08-19T09:42:16.614Z,27.43
2022-08-19T09:43:09.832Z,27.34
2022-08-19T09:44:08.357Z,27.11
2022-08-19T09:45:10.513Z,27.11
2022-08-19T09:46:08.331Z,26.86
2022-08-19T09:47:08.328Z,26.72
2022-08-19T09:48:09.462Z,26.49
2022-08-19T09:49:08.248Z,26.51
2022-08-19T09:50:08.246Z,26.34
2022-08-19T09:51:08.249Z,26.42
2022-08-19T09:52:08.206Z,26.69
2022-08-19T09:53:08.199Z,26.79
2022-08-19T09:54:08.168Z,26.88
2022-08-19T09:55:08.285Z,26.96
2022-08-19T09:56:08.311Z,26.97
2022-08-19T09:57:08.136Z,27.18
2022-08-19T09:58:08.109Z,27.21
2022-08-19T09:59:08.103Z,27.21
2022-08-19T10:00:08.077Z,27.39
2022-08-19T10:01:08.133Z,27.33
2022-08-19T10:02:10.798Z,27.33
2022-08-19T10:03:08.033Z,27.30
2022-08-19T10:04:19.727Z,27.12
2022-08-19T10:05:10.009Z,27.09
2022-08-19T10:06:15.183Z,27.09
2022-08-19T10:07:08.974Z,27.12
2022-08-19T10:08:13.396Z,26.93
2022-08-19T10:09:09.145Z,27.02
2022-08-19T10:10:07.952Z,27.11
2022-08-19T10:11:28.357Z,27.08
2022-08-19T10:12:11.118Z,26.87
2022-08-19T10:13:07.876Z,26.86
2022-08-19T10:14:07.889Z,26.87
2022-08-19T10:15:07.867Z,26.96
2022-08-19T10:16:07.858Z,26.91
2022-08-19T10:17:17.885Z,26.96
2022-08-19T10:18:08.791Z,26.88
2022-08-19T10:19:07.808Z,26.98
2022-08-19T10:20:07.763Z,26.96
2022-08-19T10:21:07.781Z,26.94
2022-08-19T10:22:07.740Z,26.83
2022-08-19T10:23:07.720Z,26.98
2022-08-19T10:24:09.349Z,26.98
2022-08-19T10:25:07.690Z,27.16
2022-08-19T10:26:07.730Z,27.34
2022-08-19T10:27:07.657Z,27.77
2022-08-19T10:28:10.581Z,28.14
2022-08-19T10:29:09.179Z,28.02
2022-08-19T10:30:10.007Z,28.08
2022-08-19T10:31:07.626Z,28.09
2022-08-19T10:32:09.811Z,27.99
2022-08-19T10:33:11.012Z,27.98
2022-08-19T10:34:09.992Z,27.81
2022-08-19T10:35:07.553Z,27.65
2022-08-19T10:36:07.552Z,27.61
2022-08-19T10:37:10.169Z,27.69
2022-08-19T10:38:07.520Z,27.55
2022-08-19T10:39:07.467Z,27.65
2022-08-19T10:40:07.495Z,27.78
2022-08-19T10:41:07.474Z,27.68
2022-08-19T10:42:07.414Z,27.50
2022-08-19T10:43:07.407Z,27.86
2022-08-19T10:44:07.388Z,28.28
2022-08-19T10:45:07.363Z,28.62
2022-08-19T10:46:13.914Z,29.27
2022-08-19T10:47:17.693Z,29.63
2022-08-19T10:48:08.315Z,29.86
2022-08-19T10:49:07.319Z,29.95
2022-08-19T10:50:07.274Z,30.26
2022-08-19T10:51:07.288Z,30.63
2022-08-19T10:52:10.276Z,30.85
2022-08-19T10:53:08.050Z,30.93
2022-08-19T10:54:07.299Z,31.15
2022-08-19T10:55:08.848Z,31.41
2022-08-19T10:56:07.219Z,31.57
2022-08-19T10:57:07.220Z,31.74
2022-08-19T10:58:07.432Z,31.91
2022-08-19T10:59:07.161Z,31.84
2022-08-19T11:00:07.119Z,31.68
2022-08-19T11:01:07.177Z,31.72
2022-08-19T11:02:07.104Z,31.30
2022-08-19T11:03:39.450Z,30.86
2022-08-19T11:04:07.128Z,30.66
2022-08-19T11:05:12.684Z,30.49
2022-08-19T11:06:08.071Z,30.32
2022-08-19T11:07:07.064Z,30.06
2022-08-19T11:08:17.690Z,30.07
2022-08-19T11:09:07.980Z,30.13
2022-08-19T11:10:10.279Z,29.92
2022-08-19T11:11:09.001Z,29.86
2022-08-19T11:12:06.936Z,30.00
2022-08-19T11:13:07.024Z,29.97
2022-08-19T11:14:06.898Z,29.89
2022-08-19T11:15:06.892Z,30.00
2022-08-19T11:16:07.985Z,30.08
2022-08-19T11:17:07.863Z,30.15
2022-08-19T11:18:06.834Z,30.18
2022-08-19T11:19:07.838Z,30.21
2022-08-19T11:20:06.959Z,30.22
2022-08-19T11:21:06.855Z,30.25
2022-08-19T11:22:06.778Z,30.19
2022-08-19T11:23:06.764Z,30.28
2022-08-19T11:24:06.755Z,30.11
2022-08-19T11:25:06.774Z,30.15
2022-08-19T11:26:06.756Z,30.06
2022-08-19T11:27:06.707Z,30.01
2022-08-19T11:28:06.718Z,29.86
2022-08-19T11:29:06.697Z,29.89
2022-08-19T11:30:06.648Z,30.08
2022-08-19T11:31:06.674Z,30.10
2022-08-19T11:32:06.620Z,30.03
2022-08-19T11:33:06.599Z,30.07
2022-08-19T11:34:06.587Z,30.08
2022-08-19T11:35:06.562Z,30.00
2022-08-19T11:36:06.584Z,29.82
2022-08-19T11:37:06.537Z,29.78
2022-08-19T11:38:09.778Z,29.69
2022-08-19T11:39:07.533Z,29.63
2022-08-19T11:40:06.660Z,29.71
2022-08-19T11:41:06.513Z,29.62
2022-08-19T11:42:06.486Z,29.63
2022-08-19T11:43:06.447Z,29.58
2022-08-19T11:44:06.450Z,29.66
2022-08-19T11:45:06.416Z,29.73
2022-08-19T11:46:06.429Z,29.69
2022-08-19T11:47:09.303Z,29.62
2022-08-19T11:48:06.357Z,29.54
2022-08-19T11:49:09.572Z,29.39
2022-08-19T11:50:07.340Z,29.39
2022-08-19T11:51:06.349Z,29.44
2022-08-19T11:52:06.322Z,29.47
2022-08-19T11:53:06.290Z,29.44
2022-08-19T11:54:06.283Z,29.48
2022-08-19T11:55:06.247Z,29.49
2022-08-19T11:56:06.266Z,29.66
2022-08-19T11:57:06.220Z,29.74
2022-08-19T11:58:06.211Z,29.73
2022-08-19T11:59:08.816Z,29.99
2022-08-19T12:00:06.175Z,29.81
2022-08-19T12:01:06.204Z,29.91
2022-08-19T12:02:06.181Z,29.97
2022-08-19T12:03:06.192Z,30.04
2022-08-19T12:04:06.187Z,29.95
2022-08-19T12:05:09.089Z,29.94
2022-08-19T12:06:08.135Z,29.95
2022-08-19T12:07:06.074Z,29.94
2022-08-19T12:08:06.070Z,30.01
2022-08-19T12:09:06.052Z,29.91
2022-08-19T12:10:06.056Z,29.97
2022-08-19T12:11:06.012Z,30.03
2022-08-19T12:12:06.021Z,30.00
2022-08-19T12:13:06.006Z,29.99
2022-08-19T12:14:05.976Z,30.08
2022-08-19T12:15:05.952Z,30.25
2022-08-19T12:16:05.936Z,30.16
2022-08-19T12:17:05.947Z,30.07
2022-08-19T12:18:05.933Z,30.15
2022-08-19T12:19:05.889Z,30.15
2022-08-19T12:20:05.871Z,30.06
2022-08-19T12:21:05.888Z,30.00
2022-08-19T12:22:05.851Z,29.85
2022-08-19T12:23:05.830Z,29.76
2022-08-19T12:24:05.806Z,29.64
2022-08-19T12:25:05.894Z,29.54
2022-08-19T12:26:05.814Z,29.39
2022-08-19T12:27:05.768Z,29.35
2022-08-19T12:28:06.748Z,29.23
2022-08-19T12:29:05.727Z,29.32
2022-08-19T12:30:05.735Z,29.36
2022-08-19T12:31:05.731Z,29.30
2022-08-19T12:32:05.682Z,29.37
2022-08-19T12:33:05.691Z,29.32
2022-08-19T12:34:05.659Z,29.39
2022-08-19T12:35:05.662Z,29.36
2022-08-19T12:36:05.674Z,29.33
2022-08-19T12:37:05.624Z,29.49
2022-08-19T12:38:05.609Z,29.47
2022-08-19T12:39:05.584Z,29.45
2022-08-19T12:40:05.608Z,29.64
2022-08-19T12:41:05.587Z,29.71
2022-08-19T12:42:05.542Z,29.79
2022-08-19T12:43:05.505Z,29.71
2022-08-19T12:44:05.500Z,29.88
2022-08-19T12:45:05.905Z,29.89
2022-08-19T12:46:05.479Z,30.00
2022-08-19T12:47:05.451Z,29.94
2022-08-19T12:48:33.019Z,29.95
2022-08-19T12:49:09.147Z,29.88
2022-08-19T12:50:07.041Z,30.01
2022-08-19T12:51:06.416Z,30.01
2022-08-19T12:52:05.417Z,30.01
2022-08-19T12:53:05.343Z,29.94
2022-08-19T12:54:05.320Z,29.86
2022-08-19T12:55:05.307Z,29.74